sensor_id;sensor_type;location;lat;lon;timestamp;P1;durP1;ratioP1;P2;durP2;ratioP2
20792;SDS011;10556;-33.662;151.094;2023-03-03T00:02:27;0.80;;;0.50;;
20792;SDS011;10556;-33.662;151.094;2023-03-03T00:07:28;1.53;;;0.50;;
20792;SDS011;10556;-33.662;151.094;2023-03-03T00:12:31;1.50;;;0.70;;
20792;SDS011;10556;-33.662;151.094;2023-03-03T00:17:34;1.27;;;0.83;;
20792;SDS011;10556;-33.662;151.094;2023-03-03T00:22:36;1.70;;;0.53;;
20792;SDS011;10556;-33.662;151.094;2023-03-03T00:27:39;1.50;;;0.73;;
20792;SDS011;10556;-33.662;151.094;2023-03-03T00:32:41;0.97;;;0.50;;
20792;SDS011;10556;-33.662;151.094;2023-03-03T00:37:43;0.63;;;0.37;;
20792;SDS011;10556;-33.662;151.094;2023-03-03T00:42:48;1.10;;;0.60;;
20792;SDS011;10556;-33.662;151.094;2023-03-03T00:47:49;0.70;;;0.50;;
20792;SDS011;10556;-33.662;151.094;2023-03-03T00:52:54;1.97;;;0.60;;
20792;SDS011;10556;-33.662;151.094;2023-03-03T00:57:59;1.07;;;0.50;;
20792;SDS011;10556;-33.662;151.094;2023-03-03T01:03:01;1.63;;;0.70;;
20792;SDS011;10556;-33.662;151.094;2023-03-03T01:08:03;4.40;;;1.03;;
20792;SDS011;10556;-33.662;151.094;2023-03-03T01:13:06;1.50;;;0.83;;
20792;SDS011;10556;-33.662;151.094;2023-03-03T01:18:08;1.80;;;1.10;;
20792;SDS011;10556;-33.662;151.094;2023-03-03T01:23:09;4.57;;;0.90;;
20792;SDS011;10556;-33.662;151.094;2023-03-03T01:28:13;2.70;;;1.10;;
20792;SDS011;10556;-33.662;151.094;2023-03-03T01:33:14;2.80;;;1.10;;
20792;SDS011;10556;-33.662;151.094;2023-03-03T01:38:15;1.48;;;1.20;;
20792;SDS011;10556;-33.662;151.094;2023-03-03T01:43:18;1.70;;;1.05;;
20792;SDS011;10556;-33.662;151.094;2023-03-03T01:48:20;1.90;;;1.05;;
20792;SDS011;10556;-33.662;151.094;2023-03-03T01:53:24;2.65;;;0.90;;
20792;SDS011;10556;-33.662;151.094;2023-03-03T01:58:30;1.33;;;1.00;;
20792;SDS011;10556;-33.662;151.094;2023-03-03T02:03:33;2.55;;;1.13;;
20792;SDS011;10556;-33.662;151.094;2023-03-03T02:08:35;2.47;;;1.00;;
20792;SDS011;10556;-33.662;151.094;2023-03-03T02:13:41;3.65;;;1.00;;
20792;SDS011;10556;-33.662;151.094;2023-03-03T02:18:42;3.15;;;1.25;;
20792;SDS011;10556;-33.662;151.094;2023-03-03T02:23:44;1.48;;;0.80;;
20792;SDS011;10556;-33.662;151.094;2023-03-03T02:28:50;1.25;;;0.82;;
20792;SDS011;10556;-33.662;151.094;2023-03-03T02:33:52;2.95;;;0.93;;
20792;SDS011;10556;-33.662;151.094;2023-03-03T02:38:55;3.33;;;1.00;;
20792;SDS011;10556;-33.662;151.094;2023-03-03T02:44:01;2.60;;;0.82;;
20792;SDS011;10556;-33.662;151.094;2023-03-03T02:49:03;2.42;;;0.80;;
20792;SDS011;10556;-33.662;151.094;2023-03-03T02:54:05;1.98;;;0.82;;
20792;SDS011;10556;-33.662;151.094;2023-03-03T02:59:08;2.35;;;0.90;;
20792;SDS011;10556;-33.662;151.094;2023-03-03T03:04:10;1.90;;;0.67;;
20792;SDS011;10556;-33.662;151.094;2023-03-03T03:09:12;1.83;;;0.60;;
20792;SDS011;10556;-33.662;151.094;2023-03-03T03:14:18;1.03;;;0.60;;
20792;SDS011;10556;-33.662;151.094;2023-03-03T03:19:19;1.67;;;0.50;;
20792;SDS011;10556;-33.662;151.094;2023-03-03T03:24:20;1.27;;;0.70;;
20792;SDS011;10556;-33.662;151.094;2023-03-03T03:29:23;1.10;;;0.50;;
20792;SDS011;10556;-33.662;151.094;2023-03-03T03:34:24;1.70;;;0.50;;
20792;SDS011;10556;-33.662;151.094;2023-03-03T03:39:26;1.93;;;0.50;;
20792;SDS011;10556;-33.662;151.094;2023-03-03T03:44:29;1.23;;;0.55;;
20792;SDS011;10556;-33.662;151.094;2023-03-03T03:49:30;1.17;;;0.40;;
20792;SDS011;10556;-33.662;151.094;2023-03-03T03:54:31;2.78;;;0.55;;
20792;SDS011;10556;-33.662;151.094;2023-03-03T03:59:34;0.70;;;0.50;;
20792;SDS011;10556;-33.662;151.094;2023-03-03T04:04:35;1.70;;;0.60;;
20792;SDS011;10556;-33.662;151.094;2023-03-03T04:09:37;0.98;;;0.40;;
20792;SDS011;10556;-33.662;151.094;2023-03-03T04:14:40;1.05;;;0.32;;
20792;SDS011;10556;-33.662;151.094;2023-03-03T04:19:41;1.05;;;0.55;;
20792;SDS011;10556;-33.662;151.094;2023-03-03T04:24:42;0.80;;;0.40;;
20792;SDS011;10556;-33.662;151.094;2023-03-03T04:29:45;1.30;;;0.47;;
20792;SDS011;10556;-33.662;151.094;2023-03-03T04:34:47;1.00;;;0.50;;
20792;SDS011;10556;-33.662;151.094;2023-03-03T04:39:48;1.17;;;0.35;;
20792;SDS011;10556;-33.662;151.094;2023-03-03T04:44:51;1.65;;;0.50;;
20792;SDS011;10556;-33.662;151.094;2023-03-03T04:49:52;0.45;;;0.40;;
20792;SDS011;10556;-33.662;151.094;2023-03-03T04:54:53;0.45;;;0.38;;
20792;SDS011;10556;-33.662;151.094;2023-03-03T04:59:57;0.40;;;0.38;;
20792;SDS011;10556;-33.662;151.094;2023-03-03T05:04:58;1.05;;;0.50;;
20792;SDS011;10556;-33.662;151.094;2023-03-03T05:09:59;1.52;;;0.60;;
20792;SDS011;10556;-33.662;151.094;2023-03-03T05:15:02;2.80;;;0.80;;
20792;SDS011;10556;-33.662;151.094;2023-03-03T05:20:04;1.23;;;0.50;;
20792;SDS011;10556;-33.662;151.094;2023-03-03T05:25:05;2.72;;;0.70;;
20792;SDS011;10556;-33.662;151.094;2023-03-03T05:30:09;0.90;;;0.57;;
20792;SDS011;10556;-33.662;151.094;2023-03-03T05:35:11;0.85;;;0.43;;
20792;SDS011;10556;-33.662;151.094;2023-03-03T05:40:13;1.10;;;0.40;;
20792;SDS011;10556;-33.662;151.094;2023-03-03T05:45:16;0.47;;;0.30;;
20792;SDS011;10556;-33.662;151.094;2023-03-03T05:50:18;0.93;;;0.40;;
20792;SDS011;10556;-33.662;151.094;2023-03-03T05:55:19;0.80;;;0.40;;
20792;SDS011;10556;-33.662;151.094;2023-03-03T06:00:23;0.68;;;0.45;;
20792;SDS011;10556;-33.662;151.094;2023-03-03T06:05:24;0.68;;;0.35;;
20792;SDS011;10556;-33.662;151.094;2023-03-03T06:10:25;0.30;;;0.30;;
20792;SDS011;10556;-33.662;151.094;2023-03-03T06:15:28;0.90;;;0.17;;
20792;SDS011;10556;-33.662;151.094;2023-03-03T06:20:30;0.20;;;0.20;;
20792;SDS011;10556;-33.662;151.094;2023-03-03T06:25:31;0.77;;;0.20;;
20792;SDS011;10556;-33.662;151.094;2023-03-03T06:30:34;1.42;;;0.22;;
20792;SDS011;10556;-33.662;151.094;2023-03-03T06:35:35;0.75;;;0.30;;
20792;SDS011;10556;-33.662;151.094;2023-03-03T06:40:37;0.45;;;0.28;;
20792;SDS011;10556;-33.662;151.094;2023-03-03T06:45:40;0.47;;;0.20;;
20792;SDS011;10556;-33.662;151.094;2023-03-03T06:50:41;0.15;;;0.15;;
20792;SDS011;10556;-33.662;151.094;2023-03-03T06:55:42;1.38;;;0.40;;
20792;SDS011;10556;-33.662;151.094;2023-03-03T07:00:49;0.28;;;0.28;;
20792;SDS011;10556;-33.662;151.094;2023-03-03T07:05:53;0.22;;;0.20;;
20792;SDS011;10556;-33.662;151.094;2023-03-03T07:10:54;0.65;;;0.20;;
20792;SDS011;10556;-33.662;151.094;2023-03-03T07:15:58;0.10;;;0.10;;
20792;SDS011;10556;-33.662;151.094;2023-03-03T07:21:03;3.53;;;0.33;;
20792;SDS011;10556;-33.662;151.094;2023-03-03T07:26:06;0.20;;;0.20;;
20792;SDS011;10556;-33.662;151.094;2023-03-03T07:31:24;0.30;;;0.20;;
20792;SDS011;10556;-33.662;151.094;2023-03-03T07:36:27;0.47;;;0.27;;
20792;SDS011;10556;-33.662;151.094;2023-03-03T07:41:29;0.40;;;0.27;;
20792;SDS011;10556;-33.662;151.094;2023-03-03T07:46:36;0.60;;;0.20;;
20792;SDS011;10556;-33.662;151.094;2023-03-03T07:51:39;0.50;;;0.10;;
20792;SDS011;10556;-33.662;151.094;2023-03-03T07:56:40;0.40;;;0.27;;
20792;SDS011;10556;-33.662;151.094;2023-03-03T08:01:43;2.27;;;0.30;;
20792;SDS011;10556;-33.662;151.094;2023-03-03T08:06:47;0.77;;;0.30;;
20792;SDS011;10556;-33.662;151.094;2023-03-03T08:11:49;0.40;;;0.20;;
20792;SDS011;10556;-33.662;151.094;2023-03-03T08:16:53;0.40;;;0.30;;
20792;SDS011;10556;-33.662;151.094;2023-03-03T08:21:56;0.60;;;0.30;;
20792;SDS011;10556;-33.662;151.094;2023-03-03T08:26:59;1.80;;;0.50;;
20792;SDS011;10556;-33.662;151.094;2023-03-03T08:32:02;0.87;;;0.30;;
20792;SDS011;10556;-33.662;151.094;2023-03-03T08:37:03;1.03;;;0.40;;
20792;SDS011;10556;-33.662;151.094;2023-03-03T08:42:04;3.87;;;0.80;;
20792;SDS011;10556;-33.662;151.094;2023-03-03T08:47:07;3.17;;;0.60;;
20792;SDS011;10556;-33.662;151.094;2023-03-03T08:52:08;3.07;;;0.73;;
20792;SDS011;10556;-33.662;151.094;2023-03-03T08:57:10;1.30;;;0.50;;
20792;SDS011;10556;-33.662;151.094;2023-03-03T09:02:13;1.33;;;0.60;;
20792;SDS011;10556;-33.662;151.094;2023-03-03T09:07:14;0.90;;;0.40;;
20792;SDS011;10556;-33.662;151.094;2023-03-03T09:12:16;2.00;;;0.60;;
20792;SDS011;10556;-33.662;151.094;2023-03-03T09:17:21;0.87;;;0.40;;
20792;SDS011;10556;-33.662;151.094;2023-03-03T09:22:24;0.67;;;0.50;;
20792;SDS011;10556;-33.662;151.094;2023-03-03T09:27:26;0.60;;;0.40;;
20792;SDS011;10556;-33.662;151.094;2023-03-03T09:32:32;1.80;;;0.60;;
20792;SDS011;10556;-33.662;151.094;2023-03-03T09:37:35;0.60;;;0.57;;
20792;SDS011;10556;-33.662;151.094;2023-03-03T09:42:39;1.70;;;0.70;;
20792;SDS011;10556;-33.662;151.094;2023-03-03T09:47:54;3.07;;;0.93;;
20792;SDS011;10556;-33.662;151.094;2023-03-03T09:53:03;1.43;;;0.50;;
20792;SDS011;10556;-33.662;151.094;2023-03-03T09:58:12;1.23;;;0.70;;
20792;SDS011;10556;-33.662;151.094;2023-03-03T10:08:35;1.60;;;0.80;;
20792;SDS011;10556;-33.662;151.094;2023-03-03T10:13:43;1.20;;;0.53;;
20792;SDS011;10556;-33.662;151.094;2023-03-03T10:18:50;4.27;;;1.00;;
20792;SDS011;10556;-33.662;151.094;2023-03-03T10:23:58;2.57;;;0.80;;
20792;SDS011;10556;-33.662;151.094;2023-03-03T10:29:06;1.97;;;0.70;;
20792;SDS011;10556;-33.662;151.094;2023-03-03T10:34:13;2.60;;;1.00;;
20792;SDS011;10556;-33.662;151.094;2023-03-03T10:39:22;2.17;;;0.77;;
20792;SDS011;10556;-33.662;151.094;2023-03-03T10:44:34;2.43;;;0.90;;
20792;SDS011;10556;-33.662;151.094;2023-03-03T10:49:41;3.30;;;1.00;;
20792;SDS011;10556;-33.662;151.094;2023-03-03T10:54:50;4.13;;;1.30;;
20792;SDS011;10556;-33.662;151.094;2023-03-03T11:00:02;0.97;;;0.90;;
20792;SDS011;10556;-33.662;151.094;2023-03-03T11:10:26;1.40;;;1.30;;
20792;SDS011;10556;-33.662;151.094;2023-03-03T11:15:33;2.63;;;1.00;;
20792;SDS011;10556;-33.662;151.094;2023-03-03T11:20:37;1.07;;;0.90;;
20792;SDS011;10556;-33.662;151.094;2023-03-03T11:25:42;1.63;;;0.90;;
20792;SDS011;10556;-33.662;151.094;2023-03-03T11:30:51;1.37;;;0.90;;
20792;SDS011;10556;-33.662;151.094;2023-03-03T11:35:58;0.80;;;0.70;;
20792;SDS011;10556;-33.662;151.094;2023-03-03T11:41:10;1.83;;;0.83;;
20792;SDS011;10556;-33.662;151.094;2023-03-03T11:46:15;0.83;;;0.80;;
20792;SDS011;10556;-33.662;151.094;2023-03-03T11:51:19;3.60;;;1.80;;
20792;SDS011;10556;-33.662;151.094;2023-03-03T11:56:26;3.77;;;1.20;;
20792;SDS011;10556;-33.662;151.094;2023-03-03T12:01:28;1.37;;;0.80;;
20792;SDS011;10556;-33.662;151.094;2023-03-03T12:06:32;1.60;;;1.07;;
20792;SDS011;10556;-33.662;151.094;2023-03-03T12:11:42;1.60;;;1.00;;
20792;SDS011;10556;-33.662;151.094;2023-03-03T12:16:48;3.00;;;1.10;;
20792;SDS011;10556;-33.662;151.094;2023-03-03T12:21:55;0.87;;;0.80;;
20792;SDS011;10556;-33.662;151.094;2023-03-03T12:27:02;1.20;;;1.00;;
20792;SDS011;10556;-33.662;151.094;2023-03-03T12:32:11;1.63;;;1.00;;
20792;SDS011;10556;-33.662;151.094;2023-03-03T12:37:18;2.27;;;0.90;;
20792;SDS011;10556;-33.662;151.094;2023-03-03T12:42:28;1.37;;;0.70;;
20792;SDS011;10556;-33.662;151.094;2023-03-03T12:47:32;1.60;;;0.80;;
20792;SDS011;10556;-33.662;151.094;2023-03-03T12:52:39;1.40;;;0.87;;
20792;SDS011;10556;-33.662;151.094;2023-03-03T12:57:47;1.33;;;0.87;;
20792;SDS011;10556;-33.662;151.094;2023-03-03T13:02:55;2.30;;;1.07;;
20792;SDS011;10556;-33.662;151.094;2023-03-03T13:08:01;1.10;;;0.70;;
20792;SDS011;10556;-33.662;151.094;2023-03-03T13:13:07;1.97;;;0.90;;
20792;SDS011;10556;-33.662;151.094;2023-03-03T13:18:22;1.23;;;1.13;;
20792;SDS011;10556;-33.662;151.094;2023-03-03T13:23:30;1.43;;;1.00;;
20792;SDS011;10556;-33.662;151.094;2023-03-03T13:28:35;1.97;;;1.00;;
20792;SDS011;10556;-33.662;151.094;2023-03-03T13:33:37;2.30;;;1.13;;
20792;SDS011;10556;-33.662;151.094;2023-03-03T13:38:40;1.00;;;0.80;;
20792;SDS011;10556;-33.662;151.094;2023-03-03T13:43:44;1.37;;;0.80;;
20792;SDS011;10556;-33.662;151.094;2023-03-03T13:48:53;2.47;;;1.10;;
20792;SDS011;10556;-33.662;151.094;2023-03-03T13:54:00;2.13;;;1.10;;
20792;SDS011;10556;-33.662;151.094;2023-03-03T13:59:08;1.57;;;0.90;;
20792;SDS011;10556;-33.662;151.094;2023-03-03T14:04:13;1.33;;;0.83;;
20792;SDS011;10556;-33.662;151.094;2023-03-03T14:14:43;1.40;;;0.90;;
20792;SDS011;10556;-33.662;151.094;2023-03-03T14:19:46;0.87;;;0.70;;
20792;SDS011;10556;-33.662;151.094;2023-03-03T14:30:30;1.80;;;1.07;;
20792;SDS011;10556;-33.662;151.094;2023-03-03T14:35:32;1.07;;;0.70;;
20792;SDS011;10556;-33.662;151.094;2023-03-03T14:40:34;1.57;;;1.03;;
20792;SDS011;10556;-33.662;151.094;2023-03-03T14:45:38;1.23;;;1.00;;
20792;SDS011;10556;-33.662;151.094;2023-03-03T14:50:39;1.17;;;0.93;;
20792;SDS011;10556;-33.662;151.094;2023-03-03T14:55:41;1.70;;;0.90;;
20792;SDS011;10556;-33.662;151.094;2023-03-03T15:00:45;2.07;;;1.13;;
20792;SDS011;10556;-33.662;151.094;2023-03-03T15:05:49;1.43;;;1.00;;
20792;SDS011;10556;-33.662;151.094;2023-03-03T15:10:51;1.63;;;1.03;;
20792;SDS011;10556;-33.662;151.094;2023-03-03T15:15:59;2.63;;;1.00;;
20792;SDS011;10556;-33.662;151.094;2023-03-03T15:21:02;2.10;;;0.93;;
20792;SDS011;10556;-33.662;151.094;2023-03-03T15:26:06;2.87;;;1.00;;
20792;SDS011;10556;-33.662;151.094;2023-03-03T15:31:13;0.80;;;0.80;;
20792;SDS011;10556;-33.662;151.094;2023-03-03T15:36:22;1.30;;;0.80;;
20792;SDS011;10556;-33.662;151.094;2023-03-03T15:41:31;2.03;;;1.10;;
20792;SDS011;10556;-33.662;151.094;2023-03-03T15:46:41;1.20;;;1.07;;
20792;SDS011;10556;-33.662;151.094;2023-03-03T15:51:58;1.13;;;0.90;;
20792;SDS011;10556;-33.662;151.094;2023-03-03T15:57:04;1.10;;;1.00;;
20792;SDS011;10556;-33.662;151.094;2023-03-03T16:02:13;1.07;;;0.90;;
20792;SDS011;10556;-33.662;151.094;2023-03-03T16:07:24;1.73;;;1.20;;
20792;SDS011;10556;-33.662;151.094;2023-03-03T16:12:28;0.80;;;0.80;;
20792;SDS011;10556;-33.662;151.094;2023-03-03T16:17:37;1.20;;;1.10;;
20792;SDS011;10556;-33.662;151.094;2023-03-03T16:22:49;1.13;;;0.80;;
20792;SDS011;10556;-33.662;151.094;2023-03-03T16:27:54;1.87;;;1.07;;
20792;SDS011;10556;-33.662;151.094;2023-03-03T16:33:01;1.03;;;1.00;;
20792;SDS011;10556;-33.662;151.094;2023-03-03T16:38:08;3.17;;;1.00;;
20792;SDS011;10556;-33.662;151.094;2023-03-03T16:43:14;3.97;;;1.20;;
20792;SDS011;10556;-33.662;151.094;2023-03-03T16:48:25;1.40;;;1.00;;
20792;SDS011;10556;-33.662;151.094;2023-03-03T16:53:33;1.20;;;1.07;;
20792;SDS011;10556;-33.662;151.094;2023-03-03T16:58:43;1.57;;;0.97;;
20792;SDS011;10556;-33.662;151.094;2023-03-03T17:03:50;2.43;;;1.20;;
20792;SDS011;10556;-33.662;151.094;2023-03-03T17:09:11;2.63;;;1.37;;
20792;SDS011;10556;-33.662;151.094;2023-03-03T17:14:18;1.27;;;0.97;;
20792;SDS011;10556;-33.662;151.094;2023-03-03T17:19:27;1.43;;;1.33;;
20792;SDS011;10556;-33.662;151.094;2023-03-03T17:24:35;2.27;;;1.27;;
20792;SDS011;10556;-33.662;151.094;2023-03-03T17:29:54;3.23;;;1.30;;
20792;SDS011;10556;-33.662;151.094;2023-03-03T17:35:03;1.33;;;1.10;;
20792;SDS011;10556;-33.662;151.094;2023-03-03T17:40:13;1.37;;;1.20;;
20792;SDS011;10556;-33.662;151.094;2023-03-03T17:45:16;2.00;;;1.30;;
20792;SDS011;10556;-33.662;151.094;2023-03-03T17:50:28;1.70;;;1.10;;
20792;SDS011;10556;-33.662;151.094;2023-03-03T17:55:44;2.87;;;1.27;;
20792;SDS011;10556;-33.662;151.094;2023-03-03T18:00:50;2.03;;;1.00;;
20792;SDS011;10556;-33.662;151.094;2023-03-03T18:05:58;1.30;;;1.20;;
20792;SDS011;10556;-33.662;151.094;2023-03-03T18:11:13;1.87;;;1.43;;
20792;SDS011;10556;-33.662;151.094;2023-03-03T18:16:18;1.73;;;0.90;;
20792;SDS011;10556;-33.662;151.094;2023-03-03T18:21:25;1.00;;;0.90;;
20792;SDS011;10556;-33.662;151.094;2023-03-03T18:26:34;1.30;;;1.07;;
20792;SDS011;10556;-33.662;151.094;2023-03-03T18:31:43;2.47;;;1.10;;
20792;SDS011;10556;-33.662;151.094;2023-03-03T18:36:54;1.27;;;1.17;;
20792;SDS011;10556;-33.662;151.094;2023-03-03T18:53:15;1.53;;;1.40;;
20792;SDS011;10556;-33.662;151.094;2023-03-03T18:58:20;2.40;;;1.10;;
20792;SDS011;10556;-33.662;151.094;2023-03-03T19:03:23;1.97;;;1.10;;
20792;SDS011;10556;-33.662;151.094;2023-03-03T19:08:28;4.13;;;1.90;;
20792;SDS011;10556;-33.662;151.094;2023-03-03T19:13:42;1.27;;;1.10;;
20792;SDS011;10556;-33.662;151.094;2023-03-03T19:18:56;1.30;;;1.07;;
20792;SDS011;10556;-33.662;151.094;2023-03-03T19:24:00;4.43;;;1.40;;
20792;SDS011;10556;-33.662;151.094;2023-03-03T19:29:04;1.13;;;1.03;;
20792;SDS011;10556;-33.662;151.094;2023-03-03T19:34:07;2.10;;;1.37;;
20792;SDS011;10556;-33.662;151.094;2023-03-03T19:39:26;1.20;;;1.10;;
20792;SDS011;10556;-33.662;151.094;2023-03-03T19:44:38;2.77;;;1.27;;
20792;SDS011;10556;-33.662;151.094;2023-03-03T19:49:46;1.47;;;1.20;;
20792;SDS011;10556;-33.662;151.094;2023-03-03T19:55:00;1.70;;;1.30;;
20792;SDS011;10556;-33.662;151.094;2023-03-03T20:00:02;1.53;;;1.33;;
20792;SDS011;10556;-33.662;151.094;2023-03-03T20:05:08;1.50;;;1.10;;
20792;SDS011;10556;-33.662;151.094;2023-03-03T20:10:22;1.37;;;1.10;;
20792;SDS011;10556;-33.662;151.094;2023-03-03T20:15:27;0.93;;;0.93;;
20792;SDS011;10556;-33.662;151.094;2023-03-03T20:25:50;1.77;;;1.27;;
20792;SDS011;10556;-33.662;151.094;2023-03-03T20:30:54;2.33;;;1.10;;
20792;SDS011;10556;-33.662;151.094;2023-03-03T20:35:58;1.50;;;1.17;;
20792;SDS011;10556;-33.662;151.094;2023-03-03T20:41:07;1.80;;;1.10;;
20792;SDS011;10556;-33.662;151.094;2023-03-03T20:46:14;1.87;;;1.50;;
20792;SDS011;10556;-33.662;151.094;2023-03-03T20:51:20;1.30;;;1.20;;
20792;SDS011;10556;-33.662;151.094;2023-03-03T20:56:27;1.67;;;1.00;;
20792;SDS011;10556;-33.662;151.094;2023-03-03T21:01:31;1.87;;;1.20;;
20792;SDS011;10556;-33.662;151.094;2023-03-03T21:06:38;1.20;;;1.10;;
20792;SDS011;10556;-33.662;151.094;2023-03-03T21:11:41;0.93;;;0.93;;
20792;SDS011;10556;-33.662;151.094;2023-03-03T21:16:43;1.63;;;1.20;;
20792;SDS011;10556;-33.662;151.094;2023-03-03T21:21:44;1.90;;;1.30;;
20792;SDS011;10556;-33.662;151.094;2023-03-03T21:26:51;2.37;;;1.30;;
20792;SDS011;10556;-33.662;151.094;2023-03-03T21:31:53;1.90;;;1.20;;
20792;SDS011;10556;-33.662;151.094;2023-03-03T21:36:54;4.20;;;1.60;;
20792;SDS011;10556;-33.662;151.094;2023-03-03T21:41:59;1.80;;;1.50;;
20792;SDS011;10556;-33.662;151.094;2023-03-03T21:47:01;1.70;;;1.33;;
20792;SDS011;10556;-33.662;151.094;2023-03-03T21:52:03;1.70;;;1.57;;
20792;SDS011;10556;-33.662;151.094;2023-03-03T21:57:06;1.63;;;1.50;;
20792;SDS011;10556;-33.662;151.094;2023-03-03T22:02:07;2.43;;;1.77;;
20792;SDS011;10556;-33.662;151.094;2023-03-03T22:07:08;1.73;;;1.53;;
20792;SDS011;10556;-33.662;151.094;2023-03-03T22:12:11;1.60;;;1.40;;
20792;SDS011;10556;-33.662;151.094;2023-03-03T22:17:12;2.43;;;0.97;;
20792;SDS011;10556;-33.662;151.094;2023-03-03T22:22:14;1.60;;;0.90;;
20792;SDS011;10556;-33.662;151.094;2023-03-03T22:27:17;1.53;;;0.80;;
20792;SDS011;10556;-33.662;151.094;2023-03-03T22:32:18;0.87;;;0.73;;
20792;SDS011;10556;-33.662;151.094;2023-03-03T22:37:19;0.97;;;0.60;;
20792;SDS011;10556;-33.662;151.094;2023-03-03T22:42:22;0.60;;;0.40;;
20792;SDS011;10556;-33.662;151.094;2023-03-03T22:47:23;2.20;;;0.60;;
20792;SDS011;10556;-33.662;151.094;2023-03-03T22:52:25;2.37;;;0.50;;
20792;SDS011;10556;-33.662;151.094;2023-03-03T22:57:28;1.73;;;0.73;;
20792;SDS011;10556;-33.662;151.094;2023-03-03T23:02:29;2.03;;;0.50;;
20792;SDS011;10556;-33.662;151.094;2023-03-03T23:07:30;0.57;;;0.30;;
20792;SDS011;10556;-33.662;151.094;2023-03-03T23:12:33;0.60;;;0.37;;
20792;SDS011;10556;-33.662;151.094;2023-03-03T23:17:35;1.27;;;0.30;;
20792;SDS011;10556;-33.662;151.094;2023-03-03T23:22:36;1.27;;;0.40;;
20792;SDS011;10556;-33.662;151.094;2023-03-03T23:27:39;1.83;;;0.30;;
20792;SDS011;10556;-33.662;151.094;2023-03-03T23:32:40;1.70;;;0.30;;
20792;SDS011;10556;-33.662;151.094;2023-03-03T23:37:42;1.90;;;0.40;;
20792;SDS011;10556;-33.662;151.094;2023-03-03T23:42:45;0.87;;;0.40;;
20792;SDS011;10556;-33.662;151.094;2023-03-03T23:47:46;2.63;;;0.50;;
20792;SDS011;10556;-33.662;151.094;2023-03-03T23:52:47;2.10;;;0.37;;
20792;SDS011;10556;-33.662;151.094;2023-03-03T23:57:50;0.70;;;0.40;;
